Time;durP1;ratioP1;P1;durP2;ratioP2;P2;SDS_P1;SDS_P2;PMS_P1;PMS_P2;Temp;Humidity;BMP_temperature;BMP_pressure;BME280_temperature;BME280_humidity;BME280_pressure;Samples;Min_cycle;Max_cycle;Signal;HPM_P1;HPM_P2
2022/10/04 00:00:07;;;;;;;8.55;4.85;;;;;;;10.00;100.00;100813.50;5010484;28;20098;-65
2022/10/04 00:02:33;;;;;;;7.75;5.00;;;;;;;9.98;100.00;100814.44;5012430;28;20041;-65
2022/10/04 00:05:04;;;;;;;9.68;6.00;;;;;;;9.97;100.00;100808.22;5031149;28;20025;-66
2022/10/04 00:07:37;;;;;;;10.25;5.85;;;;;;;9.94;100.00;100812.72;5032209;28;20152;-65
2022/10/04 00:10:04;;;;;;;11.48;6.15;;;;;;;9.95;100.00;100817.16;5031647;28;20026;-65
2022/10/04 00:12:37;;;;;;;10.05;5.72;;;;;;;9.85;100.00;100797.81;5031648;28;20025;-65
2022/10/04 00:15:06;;;;;;;9.57;5.72;;;;;;;9.92;100.00;100810.09;5031410;28;20443;-65
2022/10/04 00:17:34;;;;;;;10.40;5.10;;;;;;;9.89;100.00;100815.47;5012942;28;20128;-66
2022/10/04 00:20:01;;;;;;;11.10;5.18;;;;;;;9.86;100.00;100807.56;5012094;28;20029;-65
2022/10/04 00:22:31;;;;;;;8.23;5.50;;;;;;;9.87;100.00;100805.75;5012660;28;20113;-66
2022/10/04 00:25:06;;;;;;;10.70;6.60;;;;;;;9.82;100.00;100812.94;5012127;28;20024;-66
2022/10/04 00:27:36;;;;;;;8.43;5.13;;;;;;;9.79;100.00;100807.66;5012022;28;20037;-66
2022/10/04 00:30:01;;;;;;;9.73;5.18;;;;;;;9.77;100.00;100802.38;5012117;28;20034;-66
2022/10/04 00:32:42;;;;;;;8.55;4.97;;;;;;;9.76;100.00;100802.41;5012449;28;20381;-65
2022/10/04 00:35:39;;;;;;;9.15;5.03;;;;;;;9.75;100.00;100790.03;5012379;28;20108;-65
2022/10/04 00:38:13;;;;;;;11.88;4.65;;;;;;;9.71;100.00;100793.63;4968232;28;20041;-65
2022/10/04 00:40:53;;;;;;;13.48;5.40;;;;;;;9.66;100.00;100795.50;5012010;28;20083;-65
2022/10/04 00:43:41;;;;;;;11.88;4.50;;;;;;;9.73;100.00;100783.88;5012291;28;20397;-65
2022/10/04 00:46:22;;;;;;;9.48;5.25;;;;;;;9.69;100.00;100785.69;5012499;28;20065;-65
2022/10/04 00:49:01;;;;;;;8.88;5.05;;;;;;;9.66;100.00;100780.44;5010858;28;20036;-65
2022/10/04 00:51:37;;;;;;;10.60;5.43;;;;;;;9.60;100.00;100788.53;5012033;28;20551;-65
2022/10/04 00:54:21;;;;;;;8.70;4.53;;;;;;;9.64;100.00;100787.53;5011726;28;20125;-65
2022/10/04 00:56:51;;;;;;;9.20;5.13;;;;;;;9.64;100.00;100778.72;5012404;28;20038;-66
2022/10/04 00:59:35;;;;;;;10.60;5.53;;;;;;;9.58;100.00;100786.78;5011850;28;20018;-66
2022/10/04 01:02:17;;;;;;;10.13;4.43;;;;;;;9.53;100.00;100780.66;5009796;28;20029;-63
2022/10/04 01:05:21;;;;;;;8.23;4.95;;;;;;;9.55;100.00;100786.81;4992193;28;20037;-64
2022/10/04 01:08:11;;;;;;;8.73;5.20;;;;;;;9.53;100.00;100785.97;5002376;28;20037;-64
2022/10/04 01:10:49;;;;;;;9.63;4.88;;;;;;;9.46;100.00;100782.53;5001167;28;20124;-64
2022/10/04 01:13:29;;;;;;;7.55;4.40;;;;;;;9.44;100.00;100788.78;5011813;28;20033;-64
2022/10/04 01:16:01;;;;;;;8.38;4.47;;;;;;;9.37;100.00;100780.03;5011362;28;20053;-64
2022/10/04 01:18:30;;;;;;;8.60;5.32;;;;;;;9.40;100.00;100782.66;5011507;28;20025;-64
2022/10/04 01:21:22;;;;;;;7.10;4.50;;;;;;;9.35;100.00;100784.50;5011400;28;20449;-64
2022/10/04 01:23:56;;;;;;;8.95;4.90;;;;;;;9.39;100.00;100790.63;5022599;28;20033;-64
2022/10/04 01:26:33;;;;;;;8.32;4.93;;;;;;;9.34;100.00;100788.91;5030667;28;20747;-63
2022/10/04 01:29:07;;;;;;;7.78;4.85;;;;;;;9.36;100.00;100788.88;5030487;28;20025;-64
2022/10/04 01:31:35;;;;;;;8.85;4.53;;;;;;;9.28;100.00;100785.47;5030811;28;20835;-64
2022/10/04 01:34:01;;;;;;;8.45;4.15;;;;;;;9.15;100.00;100765.34;5030273;28;20065;-64
2022/10/04 01:36:28;;;;;;;5.65;3.08;;;;;;;9.19;100.00;100775.00;5030134;28;20072;-64
2022/10/04 01:38:54;;;;;;;8.68;3.97;;;;;;;9.14;100.00;100768.91;5030019;28;20153;-64
2022/10/04 01:42:01;;;;;;;10.75;4.25;;;;;;;9.17;100.00;100766.19;5030164;28;20026;-64
2022/10/04 01:44:44;;;;;;;7.72;4.15;;;;;;;9.20;100.00;100763.47;5019538;28;20049;-64
2022/10/04 01:47:21;;;;;;;9.25;4.78;;;;;;;9.18;100.00;100752.00;5030532;28;20037;-63
2022/10/04 01:49:47;;;;;;;9.30;4.97;;;;;;;9.31;100.00;100761.53;5030831;28;20040;-64
2022/10/04 01:52:26;;;;;;;9.25;5.30;;;;;;;9.36;100.00;100762.34;5030744;28;20041;-64
2022/10/04 01:55:05;;;;;;;9.52;5.22;;;;;;;9.32;100.00;100760.66;5030772;28;20108;-64
2022/10/04 01:57:37;;;;;;;10.13;4.88;;;;;;;9.28;100.00;100757.16;5030613;28;20039;-64
2022/10/04 02:00:11;;;;;;;7.25;4.80;;;;;;;9.27;100.00;100757.19;5030899;28;20033;-64
2022/10/04 02:02:43;;;;;;;;;;;;;;;9.24;100.00;100754.59;5030832;28;20032;-64
2022/10/04 02:05:16;;;;;;;10.65;4.68;;;;;;;9.19;100.00;100756.44;5010917;28;19914;-64
2022/10/04 02:07:43;;;;;;;8.05;5.00;;;;;;;9.19;100.00;100753.78;5011114;28;20052;-64
2022/10/04 02:10:16;;;;;;;9.73;5.00;;;;;;;9.14;100.00;100753.81;5028555;28;20439;-64
2022/10/04 02:12:46;;;;;;;12.60;5.03;;;;;;;9.03;100.00;100736.31;5050697;28;20071;-64
2022/10/04 02:15:13;;;;;;;9.50;5.10;;;;;;;9.07;100.00;100751.31;5050554;28;20028;-64
2022/10/04 02:17:41;;;;;;;9.60;4.75;;;;;;;9.05;100.00;100755.75;5050676;28;20144;-64
2022/10/04 02:20:15;;;;;;;8.05;4.60;;;;;;;9.03;100.00;100761.06;5050705;28;20029;-63
2022/10/04 02:22:42;;;;;;;9.23;5.15;;;;;;;9.04;100.00;100752.19;5050215;28;20043;-64
2022/10/04 02:25:09;;;;;;;11.20;5.78;;;;;;;9.06;100.00;100755.72;5050411;28;20446;-63
2022/10/04 02:27:35;;;;;;;8.48;5.22;;;;;;;9.09;100.00;100752.16;5045839;28;20108;-64
2022/10/04 02:30:04;;;;;;;10.40;5.65;;;;;;;9.12;100.00;100758.31;5030666;28;20421;-64
2022/10/04 02:35:17;;;;;;;10.73;5.30;;;;;;;9.20;100.00;100748.44;5030295;28;20041;-64
2022/10/04 02:37:43;;;;;;;9.05;4.57;;;;;;;9.17;100.00;100747.63;5030429;28;20441;-63
2022/10/04 02:40:16;;;;;;;6.97;4.43;;;;;;;9.18;100.00;100750.25;5033143;28;20048;-63
2022/10/04 02:42:59;;;;;;;8.20;4.37;;;;;;;9.19;100.00;100745.81;5039722;28;20024;-63
2022/10/04 02:45:46;;;;;;;6.95;4.60;;;;;;;9.23;100.00;100737.78;5053567;28;20545;-63
2022/10/04 02:48:35;;;;;;;9.52;6.35;;;;;;;9.22;100.00;100735.16;5042179;28;20056;-63
2022/10/04 02:51:37;;;;;;;11.43;6.25;;;;;;;9.22;100.00;100732.50;5053316;28;20056;-63
2022/10/04 02:54:28;;;;;;;11.35;5.95;;;;;;;9.17;100.00;100731.69;5022117;28;20037;-64
2022/10/04 02:56:58;;;;;;;7.95;5.53;;;;;;;9.12;100.00;100733.53;5033779;28;20067;-63
2022/10/04 02:59:24;;;;;;;14.40;5.95;;;;;;;9.10;100.00;100735.31;5032089;28;20061;-64
2022/10/04 03:02:01;;;;;;;11.93;5.82;;;;;;;9.13;100.00;100735.28;5031844;28;20061;-64
2022/10/04 03:04:30;;;;;;;8.20;5.10;;;;;;;9.12;100.00;100738.84;5046195;28;20064;-64
2022/10/04 03:07:00;;;;;;;12.43;5.72;;;;;;;9.11;100.00;100731.75;5034764;28;20021;-63
2022/10/04 03:09:27;;;;;;;8.35;5.07;;;;;;;9.15;100.00;100742.34;5052876;28;20021;-64
2022/10/04 03:11:53;;;;;;;9.05;5.05;;;;;;;9.14;100.00;100743.22;5052891;28;20029;-63
2022/10/04 03:14:22;;;;;;;11.75;5.28;;;;;;;9.18;100.00;100739.63;5053469;28;20545;-63
2022/10/04 03:16:52;;;;;;;9.50;4.30;;;;;;;9.15;100.00;100734.38;5053234;28;20025;-63
2022/10/04 03:19:20;;;;;;;19.17;6.15;;;;;;;9.15;100.00;100734.38;5053101;28;20056;-64
2022/10/04 03:21:54;;;;;;;17.83;6.72;;;;;;;9.17;100.00;100737.88;5036456;28;20033;-63
2022/10/04 03:24:35;;;;;;;9.68;4.85;;;;;;;9.22;100.00;100735.16;5033397;28;20124;-63
2022/10/04 03:27:06;;;;;;;26.77;6.95;;;;;;;9.27;100.00;100734.16;5033017;28;20025;-64
2022/10/04 03:29:32;;;;;;;8.85;4.75;;;;;;;9.36;100.00;100732.28;5032823;28;20061;-63
2022/10/04 03:32:02;;;;;;;10.55;5.13;;;;;;;9.41;100.00;100733.94;5033063;28;20540;-64
2022/10/04 03:34:33;;;;;;;11.30;5.00;;;;;;;9.50;100.00;100725.84;5033073;28;20057;-64
2022/10/04 03:37:00;;;;;;;12.32;5.22;;;;;;;9.59;100.00;100730.97;5033014;28;20028;-63
2022/10/04 03:39:37;;;;;;;12.60;5.43;;;;;;;9.62;100.00;100725.59;5032613;28;20084;-64
2022/10/04 03:42:09;;;;;;;18.48;5.55;;;;;;;9.64;100.00;100722.94;5032537;28;20033;-64
2022/10/04 03:44:35;;;;;;;11.25;6.18;;;;;;;9.67;100.00;100722.88;5032865;28;20040;-63
2022/10/04 03:47:19;;;;;;;22.55;7.35;;;;;;;9.71;100.00;100722.78;5032469;28;20075;-63
2022/10/04 03:49:46;;;;;;;22.05;6.53;;;;;;;9.78;100.00;100734.19;5032459;28;20025;-64
2022/10/04 03:52:21;;;;;;;14.90;6.70;;;;;;;9.77;100.00;100730.66;5032176;28;20051;-63
2022/10/04 03:54:50;;;;;;;11.23;5.28;;;;;;;9.75;100.00;100721.81;5032911;28;20057;-63
2022/10/04 03:57:16;;;;;;;18.02;5.35;;;;;;;9.73;100.00;100726.31;5014987;28;20037;-63
2022/10/04 03:59:42;;;;;;;14.75;6.10;;;;;;;9.69;100.00;100727.25;5032571;28;20026;-63
2022/10/04 04:02:40;;;;;;;17.27;5.85;;;;;;;9.63;100.00;100722.06;5032341;28;20025;-64
2022/10/04 04:05:17;;;;;;;9.93;5.30;;;;;;;9.63;100.00;100721.19;5012239;28;20109;-63
2022/10/04 04:08:14;;;;;;;11.98;6.10;;;;;;;9.53;100.00;100714.28;5044983;28;20060;-63
2022/10/04 04:10:49;;;;;;;12.82;5.72;;;;;;;9.53;100.00;100722.22;5044232;28;20041;-63
2022/10/04 04:13:14;;;;;;;10.07;5.30;;;;;;;9.52;100.00;100717.84;5051130;28;20022;-62
2022/10/04 04:15:42;;;;;;;16.00;5.75;;;;;;;9.49;100.00;100718.75;5051118;28;20496;-63
2022/10/04 04:18:18;;;;;;;13.18;6.03;;;;;;;9.49;100.00;100724.06;5051454;28;20017;-63
2022/10/04 04:20:44;;;;;;;10.70;5.28;;;;;;;9.43;100.00;100723.28;5052337;28;20029;-63
2022/10/04 04:23:18;;;;;;;14.68;5.13;;;;;;;9.47;100.00;100719.69;5030346;28;20026;-63
2022/10/04 04:25:49;;;;;;;18.33;5.50;;;;;;;9.43;100.00;100712.66;5012389;28;20132;-63
2022/10/04 04:28:17;;;;;;;14.25;4.90;;;;;;;9.34;100.00;100717.22;5022511;28;20156;-62
2022/10/04 04:30:46;;;;;;;8.35;4.63;;;;;;;9.33;100.00;100719.91;5032229;28;20033;-62
2022/10/04 04:33:24;;;;;;;14.13;4.07;;;;;;;9.38;100.00;100728.69;5032118;28;20025;-63
2022/10/04 04:35:54;;;;;;;12.13;4.85;;;;;;;9.36;100.00;100724.31;5033910;28;20029;-63
2022/10/04 04:38:22;;;;;;;14.02;4.38;;;;;;;9.36;100.00;100721.66;5051484;28;20021;-63
2022/10/04 04:40:49;;;;;;;9.82;5.30;;;;;;;9.31;100.00;100725.25;5052021;28;20447;-62
2022/10/04 04:43:18;;;;;;;8.82;4.70;;;;;;;9.26;100.00;100718.25;5051671;28;20029;-62
2022/10/04 04:45:47;;;;;;;7.72;4.50;;;;;;;9.26;100.00;100715.59;5032772;28;20037;-63
2022/10/04 04:48:15;;;;;;;7.85;4.25;;;;;;;9.33;100.00;100722.56;5030711;28;20091;-64
2022/10/04 04:50:41;;;;;;;11.23;4.53;;;;;;;9.31;100.00;100713.75;5031212;28;20124;-63
2022/10/04 04:53:13;;;;;;;11.68;5.03;;;;;;;9.31;100.00;100724.38;5031751;28;20555;-63
2022/10/04 04:55:43;;;;;;;8.10;4.25;;;;;;;9.31;100.00;100725.25;5037196;28;20383;-64
2022/10/04 04:58:20;;;;;;;9.82;4.43;;;;;;;9.37;100.00;100728.72;5042216;28;20797;-63
2022/10/04 05:00:57;;;;;;;10.63;4.93;;;;;;;9.30;100.00;100736.78;5031513;28;20041;-63
2022/10/04 05:03:23;;;;;;;10.10;5.80;;;;;;;9.27;100.00;100730.66;5030102;28;20025;-63
2022/10/04 05:05:50;;;;;;;12.30;5.43;;;;;;;9.24;100.00;100730.69;5031160;28;20033;-63
2022/10/04 05:08:27;;;;;;;14.85;5.38;;;;;;;9.24;100.00;100738.66;5031278;28;20029;-63
2022/10/04 05:11:08;;;;;;;15.60;6.10;;;;;;;9.24;100.00;100741.31;5031570;28;20536;-63
2022/10/04 05:13:46;;;;;;;16.48;5.35;;;;;;;9.28;100.00;100735.94;5031126;28;20493;-63
2022/10/04 05:16:34;;;;;;;35.38;7.60;;;;;;;9.32;100.00;100736.75;5030378;28;20082;-63
2022/10/04 05:19:04;;;;;;;26.83;5.45;;;;;;;9.31;100.00;100741.19;5030028;28;20413;-63
2022/10/04 05:21:32;;;;;;;18.63;5.53;;;;;;;9.26;100.00;100745.69;5030953;28;20092;-62
2022/10/04 05:24:08;;;;;;;25.02;5.43;;;;;;;9.26;100.00;100748.34;5030689;28;20384;-63
2022/10/04 05:26:33;;;;;;;17.10;6.30;;;;;;;9.30;100.00;100759.78;5030853;28;20040;-63
2022/10/04 05:29:07;;;;;;;22.83;5.95;;;;;;;9.30;100.00;100744.75;5030953;28;20100;-63
2022/10/04 05:31:41;;;;;;;10.10;5.80;;;;;;;9.41;100.00;100751.66;5029325;28;20036;-63
2022/10/04 05:34:18;;;;;;;10.57;4.65;;;;;;;9.43;100.00;100761.34;5031052;28;20025;-63
2022/10/04 05:37:19;;;;;;;10.75;4.10;;;;;;;9.43;100.00;100773.75;5030810;28;20021;-63
2022/10/04 05:40:22;;;;;;;25.92;4.53;;;;;;;9.48;100.00;100763.91;5030969;28;20098;-63
2022/10/04 05:42:50;;;;;;;26.57;5.13;;;;;;;9.47;100.00;100773.69;5030867;28;20030;-63
2022/10/04 05:45:19;;;;;;;21.23;5.85;;;;;;;9.50;100.00;100768.31;5030936;28;20087;-63
2022/10/04 05:47:56;;;;;;;26.13;4.90;;;;;;;9.53;100.00;100770.91;5029987;28;20030;-63
2022/10/04 05:50:30;;;;;;;18.90;6.65;;;;;;;9.57;100.00;100780.56;5028478;28;20076;-63
2022/10/04 05:53:23;;;;;;;38.38;5.75;;;;;;;9.62;100.00;100784.03;5029194;28;20449;-63
2022/10/04 05:55:58;;;;;;;19.45;5.88;;;;;;;9.72;100.00;100788.28;5031106;28;20648;-63
2022/10/04 05:58:39;;;;;;;28.33;5.28;;;;;;;9.74;100.00;100783.84;5031024;28;20037;-63
2022/10/04 06:01:15;;;;;;;29.83;10.88;;;;;;;9.78;100.00;100782.00;5030876;28;20123;-63
2022/10/04 06:04:08;;;;;;;33.95;8.27;;;;;;;9.79;100.00;100781.97;5030495;28;20025;-63
2022/10/04 06:06:45;;;;;;;23.73;6.20;;;;;;;9.79;100.00;100779.31;4995892;28;20413;-63
2022/10/04 06:09:34;;;;;;;25.08;5.85;;;;;;;9.74;100.00;100782.94;5010995;28;20033;-63
2022/10/04 06:12:05;;;;;;;24.38;6.68;;;;;;;9.71;100.00;100773.28;5046747;28;20053;-63
2022/10/04 06:14:39;;;;;;;30.17;6.85;;;;;;;9.69;100.00;100774.19;5035846;28;20036;-63
2022/10/04 06:17:42;;;;;;;29.38;5.47;;;;;;;9.65;100.00;100778.69;5033010;28;20380;-63
2022/10/04 06:20:42;;;;;;;24.83;5.47;;;;;;;9.56;100.00;100778.84;5014675;28;20026;-63
2022/10/04 06:23:17;;;;;;;11.68;4.40;;;;;;;9.42;100.00;100769.34;5014358;28;20026;-63
2022/10/04 06:26:04;;;;;;;22.83;5.05;;;;;;;9.33;100.00;100755.31;5014663;28;20481;-63
2022/10/04 06:28:44;;;;;;;20.33;5.65;;;;;;;9.58;100.00;100774.38;5026505;28;20021;-63
2022/10/04 06:31:28;;;;;;;20.77;4.82;;;;;;;9.61;100.00;100776.09;5029054;28;20037;-63
2022/10/04 06:34:35;;;;;;;10.52;4.85;;;;;;;9.68;100.00;100778.63;5028727;28;20026;-63
2022/10/04 06:37:14;;;;;;;17.60;5.15;;;;;;;9.79;100.00;100787.28;5005154;28;20048;-63
2022/10/04 06:39:52;;;;;;;30.20;9.57;;;;;;;9.81;100.00;100781.94;5029113;28;20104;-63
2022/10/04 06:42:35;;;;;;;20.58;6.13;;;;;;;9.75;100.00;100780.25;5042627;28;20053;-63
2022/10/04 06:45:35;;;;;;;26.58;6.80;;;;;;;9.77;100.00;100778.47;5024501;28;20033;-64
2022/10/04 06:48:19;;;;;;;19.63;5.45;;;;;;;9.75;100.00;100785.56;5033501;28;20045;-63
2022/10/04 06:50:54;;;;;;;34.85;5.93;;;;;;;9.79;100.00;100792.59;5038313;28;20447;-63
2022/10/04 06:53:34;;;;;;;18.92;5.18;;;;;;;9.86;100.00;100793.38;5026283;28;20496;-63
2022/10/04 06:56:47;;;;;;;16.20;5.25;;;;;;;9.95;100.00;100787.91;5020639;28;20033;-63
2022/10/04 06:59:52;;;;;;;11.45;5.43;;;;;;;10.01;100.00;100770.09;5033510;28;20041;-63
2022/10/04 07:02:30;;;;;;;11.95;6.07;;;;;;;10.12;100.00;100786.72;5018121;28;20116;-63
2022/10/04 07:05:04;;;;;;;11.93;5.80;;;;;;;10.13;100.00;100785.81;5022065;28;20440;-64
2022/10/04 07:07:36;;;;;;;11.98;5.90;;;;;;;10.25;100.00;100788.25;5013925;28;20022;-64
2022/10/04 07:10:21;;;;;;;11.13;5.97;;;;;;;10.33;100.00;100801.38;5018974;28;20120;-64
2022/10/04 07:12:54;;;;;;;14.90;6.40;;;;;;;10.40;100.00;100792.41;5020743;28;20022;-63
2022/10/04 07:15:27;;;;;;;14.70;6.32;;;;;;;10.46;100.00;100798.47;5017606;28;20617;-62
2022/10/04 07:18:15;;;;;;;13.45;7.13;;;;;;;10.47;100.00;100800.25;5026093;28;20080;-63
2022/10/04 07:20:41;;;;;;;13.40;5.78;;;;;;;10.49;100.00;100797.53;5015027;28;20033;-62
2022/10/04 07:23:20;;;;;;;13.68;6.32;;;;;;;10.50;100.00;100789.53;5023356;28;20022;-63
2022/10/04 07:25:54;;;;;;;14.05;6.13;;;;;;;10.60;100.00;100788.44;5015856;28;20100;-63
2022/10/04 07:31:34;;;;;;;15.75;5.47;;;;;;;11.11;100.00;100793.53;5021329;28;20164;-63
2022/10/04 07:34:15;;;;;;;13.25;6.13;;;;;;;11.03;100.00;100791.06;5017399;28;20029;-63
2022/10/04 07:37:06;;;;;;;15.68;7.85;;;;;;;11.12;100.00;100790.84;5025998;28;20064;-63
2022/10/04 07:40:03;;;;;;;10.95;6.63;;;;;;;11.26;100.00;100794.09;5013579;28;20037;-63
2022/10/04 07:42:35;;;;;;;13.40;5.57;;;;;;;11.16;100.00;100797.88;5018203;28;20110;-63
2022/10/04 07:45:09;;;;;;;13.93;6.10;;;;;;;11.19;100.00;100787.13;5022237;28;20038;-63
2022/10/04 07:47:35;;;;;;;9.68;5.32;;;;;;;11.32;100.00;100799.25;5018696;28;20030;-63
2022/10/04 07:50:19;;;;;;;11.40;6.20;;;;;;;11.36;100.00;100794.75;5016976;28;20033;-62
2022/10/04 07:53:04;;;;;;;;;;;;;;;11.45;100.00;100794.53;5018002;28;20060;-63
2022/10/04 07:55:55;;;;;;;13.50;7.00;;;;;;;11.73;100.00;100806.28;5013908;28;19964;-62
2022/10/04 07:58:47;;;;;;;17.95;7.60;;;;;;;11.93;100.00;100796.91;5019250;28;20083;-62
2022/10/04 08:01:12;;;;;;;15.73;7.65;;;;;;;12.21;100.00;100797.03;4999600;28;20041;-63
2022/10/04 08:03:43;;;;;;;15.45;7.93;;;;;;;12.50;100.00;100796.25;5014942;28;20044;-63
2022/10/04 08:06:26;;;;;;;15.65;7.97;;;;;;;12.68;100.00;100791.28;5020048;28;20068;-62
2022/10/04 08:09:16;;;;;;;12.83;7.73;;;;;;;12.81;100.00;100786.44;5023006;28;20037;-63
2022/10/04 08:12:07;;;;;;;13.57;6.90;;;;;;;12.86;100.00;100782.72;5033517;28;20252;-63
2022/10/04 08:14:52;;;;;;;14.15;6.93;;;;;;;13.04;100.00;100779.53;5020523;28;20091;-63
2022/10/04 08:17:46;;;;;;;10.10;6.20;;;;;;;13.05;100.00;100777.72;5013493;28;20034;-64
2022/10/04 08:20:36;;;;;;;11.13;6.05;;;;;;;13.11;100.00;100781.06;5015970;28;20037;-64
2022/10/04 08:23:19;;;;;;;12.13;6.40;;;;;;;13.12;99.23;100782.84;5015825;28;20112;-64
2022/10/04 08:26:09;;;;;;;8.40;5.93;;;;;;;13.08;99.47;100791.88;5018144;28;20100;-64
2022/10/04 08:31:56;;;;;;;8.38;4.88;;;;;;;12.76;99.44;100805.28;5014711;28;20096;-64
2022/10/04 08:34:43;;;;;;;9.95;5.53;;;;;;;12.75;100.00;100816.00;5016610;28;20030;-64
2022/10/04 08:37:17;;;;;;;8.95;5.35;;;;;;;12.77;100.00;100801.69;5017246;28;20049;-64
2022/10/04 08:39:52;;;;;;;9.90;5.55;;;;;;;12.86;100.00;100798.75;5022789;28;20137;-64
2022/10/04 08:42:45;;;;;;;9.88;6.05;;;;;;;13.07;100.00;100800.81;5026032;28;20026;-64
2022/10/04 08:45:31;;;;;;;11.98;7.65;;;;;;;13.21;100.00;100801.25;4996570;28;20049;-64
2022/10/04 08:48:21;;;;;;;11.30;6.70;;;;;;;13.23;100.00;100800.34;5022795;28;20042;-63
2022/10/04 08:51:30;;;;;;;12.93;7.40;;;;;;;13.17;100.00;100801.41;5021885;28;20068;-64
2022/10/04 08:54:21;;;;;;;9.70;6.65;;;;;;;13.16;99.27;100805.00;5031635;28;20021;-64
2022/10/04 08:57:05;;;;;;;10.02;6.25;;;;;;;13.21;98.89;100795.91;5023101;28;20040;-64
2022/10/04 09:00:09;;;;;;;10.93;6.85;;;;;;;13.36;99.70;100793.69;5018077;28;20029;-64
2022/10/04 09:02:58;;;;;;;9.38;5.53;;;;;;;13.36;98.33;100801.72;5021172;28;20397;-63
2022/10/04 09:05:49;;;;;;;10.23;5.82;;;;;;;13.26;99.17;100798.47;5017626;28;20033;-64
2022/10/04 09:09:02;;;;;;;9.77;6.22;;;;;;;13.35;99.49;100805.28;5014047;28;20065;-63
2022/10/04 09:11:57;;;;;;;12.00;6.53;;;;;;;13.48;100.00;100796.84;4960145;28;20126;-64
2022/10/04 09:15:00;;;;;;;10.93;6.45;;;;;;;13.70;99.58;100786.34;5015010;28;20041;-64
2022/10/04 09:17:45;;;;;;;9.57;6.43;;;;;;;13.85;98.87;100788.50;5015865;28;20026;-64
2022/10/04 09:20:21;;;;;;;10.63;5.95;;;;;;;14.03;98.71;100788.75;5022600;28;20259;-64
2022/10/04 09:22:57;;;;;;;16.52;7.82;;;;;;;14.09;98.24;100790.31;5019282;28;20432;-63
2022/10/04 09:25:53;;;;;;;11.85;6.70;;;;;;;14.20;96.74;100794.38;5016373;28;20244;-63
2022/10/04 09:28:47;;;;;;;11.93;7.10;;;;;;;14.42;97.50;100799.88;5012608;28;20489;-63
2022/10/04 09:31:43;;;;;;;10.95;5.90;;;;;;;14.66;95.44;100793.66;5017692;28;20033;-63
2022/10/04 09:34:21;;;;;;;10.93;6.40;;;;;;;14.74;94.96;100788.00;5013090;28;20320;-62
2022/10/04 09:37:01;;;;;;;20.02;8.80;;;;;;;14.94;94.12;100799.69;5013445;28;20050;-63
2022/10/04 09:39:45;;;;;;;13.02;6.57;;;;;;;14.90;92.78;100798.09;5012984;28;20026;-63
2022/10/04 09:42:11;;;;;;;10.27;7.10;;;;;;;14.93;92.32;100800.66;5019554;28;20076;-63
2022/10/04 09:45:04;;;;;;;11.18;6.45;;;;;;;15.06;93.36;100793.88;5017778;28;20030;-63
2022/10/04 09:47:57;;;;;;;10.88;6.65;;;;;;;15.14;93.02;100790.94;5020278;28;20041;-63
2022/10/04 09:50:42;;;;;;;11.97;6.20;;;;;;;15.26;91.05;100801.16;5018913;28;20029;-63
2022/10/04 09:53:25;;;;;;;12.90;7.03;;;;;;;15.26;91.48;100793.09;5020545;28;20065;-63
2022/10/04 09:56:30;;;;;;;10.20;6.60;;;;;;;15.37;91.76;100788.22;5019881;28;20057;-63
2022/10/04 09:59:23;;;;;;;10.60;6.80;;;;;;;15.71;91.18;100788.63;5020465;28;20463;-64
2022/10/04 10:02:07;;;;;;;11.33;7.27;;;;;;;16.57;90.35;100787.59;5018095;28;20033;-63
2022/10/04 10:04:58;;;;;;;;;;;;;;;17.30;85.35;100785.06;5017996;28;20121;-63
2022/10/04 10:07:30;;;;;;;14.07;7.30;;;;;;;17.45;79.88;100795.97;5018467;28;19917;-63
2022/10/04 10:13:49;;;;;;;10.32;6.45;;;;;;;17.72;76.36;100789.25;5019826;28;20514;-63
2022/10/04 10:16:52;;;;;;;10.68;6.10;;;;;;;17.72;77.13;100783.00;4998096;28;20033;-63
2022/10/04 10:19:51;;;;;;;10.57;5.63;;;;;;;17.94;77.51;100779.16;5017367;28;20030;-62
2022/10/04 10:22:16;;;;;;;9.43;5.85;;;;;;;17.98;75.71;100780.75;5023820;28;20025;-63
2022/10/04 10:24:49;;;;;;;10.70;6.03;;;;;;;18.04;75.40;100783.13;5018533;28;20036;-63
2022/10/04 10:27:36;;;;;;;9.13;5.82;;;;;;;17.89;75.53;100786.59;5020354;28;20033;-62
2022/10/04 10:30:46;;;;;;;11.27;5.68;;;;;;;18.02;75.53;100793.09;5018147;28;20461;-62
2022/10/04 10:33:48;;;;;;;12.35;6.72;;;;;;;18.15;75.64;100777.19;5017772;28;20057;-63
2022/10/04 10:36:23;;;;;;;11.00;6.28;;;;;;;18.51;74.20;100783.41;5015742;28;20041;-63
2022/10/04 10:38:51;;;;;;;10.73;6.20;;;;;;;18.43;72.81;100776.66;5017007;28;20392;-62
2022/10/04 10:41:26;;;;;;;11.05;6.00;;;;;;;18.84;71.94;100772.63;5016955;28;20088;-62
2022/10/04 10:44:19;;;;;;;11.68;5.80;;;;;;;19.27;71.09;100772.00;5017742;28;20548;-62
2022/10/04 10:47:25;;;;;;;11.40;5.63;;;;;;;19.23;69.77;100770.41;5020365;28;20085;-62
2022/10/04 10:50:02;;;;;;;10.13;6.07;;;;;;;19.41;69.53;100759.50;4932694;29;20043;-63
2022/10/04 10:52:46;;;;;;;12.85;6.38;;;;;;;19.75;68.81;100753.03;4935236;29;20240;-63
2022/10/04 10:55:33;;;;;;;9.45;5.05;;;;;;;19.81;66.71;100752.69;4977398;28;20045;-63
2022/10/04 10:57:58;;;;;;;8.55;5.10;;;;;;;19.97;66.49;100756.19;4999343;28;20037;-63
2022/10/04 11:00:33;;;;;;;8.80;5.93;;;;;;;20.24;66.13;100751.91;4995012;28;20034;-63
2022/10/04 11:03:20;;;;;;;8.27;5.43;;;;;;;20.87;63.92;100749.75;4996315;28;20026;-63
2022/10/04 11:06:04;;;;;;;7.47;4.88;;;;;;;20.93;62.13;100749.34;4995911;28;20061;-62
2022/10/04 11:09:03;;;;;;;13.50;5.53;;;;;;;20.61;60.34;100747.78;4996089;28;20026;-63
2022/10/04 11:11:47;;;;;;;55.80;26.92;;;;;;;20.41;64.93;100743.63;4996937;28;20060;-63
2022/10/04 11:14:15;;;;;;;16.10;8.85;;;;;;;20.30;66.48;100746.13;4995870;28;20892;-63
2022/10/04 11:17:08;;;;;;;9.43;5.97;;;;;;;20.69;66.66;100740.94;4996811;28;20058;-63
2022/10/04 11:19:40;;;;;;;26.63;6.50;;;;;;;20.62;65.28;100747.72;4996054;28;20069;-62
2022/10/04 11:22:30;;;;;;;19.38;6.05;;;;;;;20.31;64.89;100747.84;4996511;28;20265;-62
2022/10/04 11:25:15;;;;;;;8.82;5.70;;;;;;;20.56;66.53;100748.09;4996735;28;20374;-63
2022/10/04 11:28:01;;;;;;;7.65;5.00;;;;;;;21.07;60.44;100733.13;4996401;28;20113;-63
2022/10/04 11:30:51;;;;;;;8.05;5.18;;;;;;;21.33;62.87;100729.63;5000096;28;20041;-64
2022/10/04 11:33:43;;;;;;;9.13;5.32;;;;;;;21.96;60.67;100729.88;4995492;28;20017;-64
2022/10/04 11:36:28;;;;;;;9.43;5.05;;;;;;;22.31;59.08;100728.34;4995326;28;20034;-64
2022/10/04 11:39:08;;;;;;;8.40;5.10;;;;;;;22.59;54.64;100725.47;4999327;28;20037;-64
2022/10/04 11:42:27;;;;;;;8.32;5.38;;;;;;;22.99;54.41;100702.66;4995232;28;20382;-63
2022/10/04 11:45:40;;;;;;;8.95;4.38;;;;;;;23.16;51.08;100715.84;4952876;28;20871;-62
2022/10/04 11:48:52;;;;;;;9.07;4.55;;;;;;;22.64;55.87;100707.03;4984414;28;20045;-64
2022/10/04 11:51:25;;;;;;;8.55;4.97;;;;;;;23.09;55.02;100708.28;5006326;28;20084;-64
2022/10/04 11:54:06;;;;;;;7.97;4.75;;;;;;;23.51;51.51;100712.44;5017082;28;20029;-64
2022/10/04 11:56:56;;;;;;;8.55;4.72;;;;;;;23.83;52.13;100710.84;5014297;28;20161;-64
2022/10/04 11:59:43;;;;;;;8.65;4.05;;;;;;;24.15;50.72;100717.44;5015554;28;20843;-64
2022/10/04 12:02:46;;;;;;;6.75;3.75;;;;;;;24.11;49.99;100710.50;5016676;28;20037;-64
2022/10/04 12:05:32;;;;;;;7.65;4.13;;;;;;;24.01;52.16;100698.59;5016298;28;20033;-64
2022/10/04 12:08:04;;;;;;;8.25;4.50;;;;;;;24.09;50.08;100707.03;5016305;28;20030;-64
2022/10/04 12:10:38;;;;;;;7.45;4.32;;;;;;;24.08;51.49;100703.47;5016248;28;20075;-64
2022/10/04 12:13:26;;;;;;;9.35;5.63;;;;;;;24.28;49.63;100707.34;5015432;28;20018;-64
2022/10/04 12:16:10;;;;;;;7.75;3.65;;;;;;;24.62;49.64;100695.53;5014872;28;20026;-65
2022/10/04 12:18:50;;;;;;;6.55;4.00;;;;;;;24.65;50.64;100695.28;5015237;28;20033;-65
2022/10/04 12:21:49;;;;;;;6.47;4.18;;;;;;;24.39;48.69;100688.31;5014950;28;20083;-64
2022/10/04 12:24:52;;;;;;;6.38;3.78;;;;;;;24.95;48.26;100686.53;5014105;28;20026;-64
2022/10/04 12:27:28;;;;;;;6.07;3.58;;;;;;;25.05;47.10;100668.47;5017818;28;20069;-64
2022/10/04 12:30:19;;;;;;;6.68;3.40;;;;;;;24.91;47.72;100675.03;5014137;28;20539;-64